createdAt,value
2019-06-01T00:00:11.911Z,99816.06
2019-06-01T00:02:38.583Z,99813.25
2019-06-01T00:05:08.047Z,99812.07
2019-06-01T00:07:36.025Z,99804.10
2019-06-01T00:32:23.764Z,99793.78
2019-06-01T00:34:51.848Z,99798.80
2019-06-01T00:37:19.184Z,99801.16
2019-06-01T00:39:49.922Z,99795.95
2019-06-01T00:42:17.717Z,99804.64
2019-06-01T00:44:44.628Z,99804.98
2019-06-01T00:47:11.630Z,99809.29
2019-06-01T00:49:38.519Z,99803.09
2019-06-01T00:52:05.391Z,99788.50
2019-06-01T00:54:32.100Z,99797.88
2019-06-01T00:56:59.350Z,99795.20
2019-06-01T00:59:25.962Z,99794.78
2019-06-01T01:01:52.520Z,99797.95
2019-06-01T01:04:19.715Z,99784.38
2019-06-01T01:06:46.549Z,99783.66
2019-06-01T01:09:13.522Z,99780.43
2019-06-01T01:11:40.224Z,99779.06
2019-06-01T01:14:07.131Z,99775.80
2019-06-01T01:16:33.870Z,99783.30
2019-06-01T01:19:00.958Z,99777.06
2019-06-01T01:21:27.905Z,99786.91
2019-06-01T01:23:54.794Z,99787.69
2019-06-01T01:26:21.356Z,99791.95
2019-06-01T01:28:48.802Z,99791.71
2019-06-01T01:31:15.582Z,99791.75
2019-06-01T01:33:42.040Z,99786.63
2019-06-01T01:36:08.592Z,99784.94
2019-06-01T01:38:35.251Z,99793.16
2019-06-01T01:41:02.326Z,99783.53
2019-06-01T01:43:28.989Z,99785.11
2019-06-01T01:45:56.872Z,99802.97
2019-06-01T01:48:23.580Z,99790.45
2019-06-01T01:50:50.253Z,99789.23
2019-06-01T01:53:16.893Z,99785.23
2019-06-01T01:55:43.432Z,99783.73
2019-06-01T01:58:10.295Z,99787.86
2019-06-01T02:06:29.627Z,99789.38
2019-06-01T02:08:57.173Z,99800.02
2019-06-01T02:11:24.405Z,99801.98
2019-06-01T02:27:15.038Z,99791.03
2019-06-01T02:29:42.526Z,99805.45
2019-06-01T02:32:09.640Z,99799.53
2019-06-01T02:34:36.848Z,99807.88
2019-06-01T02:37:04.561Z,99797.50
2019-06-01T02:39:32.122Z,99814.80
2019-06-01T02:42:01.050Z,99803.37
2019-06-01T02:44:28.358Z,99814.38
2019-06-01T02:46:56.962Z,99815.66
2019-06-01T02:49:24.486Z,99804.92
2019-06-01T02:51:51.683Z,99802.83
2019-06-01T02:55:07.531Z,99809.62
2019-06-01T03:04:50.093Z,99806.31
2019-06-01T03:07:18.393Z,99818.27
2019-06-01T03:21:32.943Z,99819.48
2019-06-01T03:24:05.951Z,99818.63
2019-06-01T03:26:43.680Z,99824.52
2019-06-01T03:29:19.587Z,99837.44
2019-06-01T03:35:49.080Z,99819.30
2019-06-01T03:50:04.807Z,99827.22
2019-06-01T03:52:31.963Z,99829.77
2019-06-01T03:55:05.804Z,99843.23
2019-06-01T03:57:33.666Z,99831.44
2019-06-01T04:04:03.048Z,99836.08
2019-06-01T04:06:30.328Z,99833.27
2019-06-01T04:08:58.523Z,99850.24
2019-06-01T05:52:20.820Z,99824.36
2019-06-01T05:54:48.147Z,99826.07
2019-06-01T05:57:15.185Z,99829.40
2019-06-01T06:14:23.250Z,99823.39
2019-06-01T06:16:50.288Z,99833.85
2019-06-01T06:19:21.082Z,99824.28
2019-06-01T06:21:49.027Z,99823.28
2019-06-01T06:24:18.547Z,99826.34
2019-06-01T06:31:08.488Z,99806.04
2019-06-01T06:37:08.151Z,99812.53
2019-06-01T06:39:35.157Z,99822.08
2019-06-01T06:42:02.070Z,99821.73
2019-06-01T06:44:28.791Z,99817.84
2019-06-01T06:46:55.345Z,99816.08
2019-06-01T06:49:23.210Z,99812.30
2019-06-01T06:51:50.099Z,99817.15
2019-06-01T06:54:17.705Z,99815.31
2019-06-01T06:56:44.633Z,99818.30
2019-06-01T06:59:11.858Z,99817.55
2019-06-01T07:01:38.771Z,99807.05
2019-06-01T07:04:12.509Z,99816.30
2019-06-01T07:06:34.263Z,99806.92
2019-06-01T07:09:01.089Z,99806.58
2019-06-01T07:11:29.394Z,99807.53
2019-06-01T07:13:56.129Z,99813.60
2019-06-01T07:16:23.520Z,99804.90
2019-06-01T07:18:50.157Z,99799.18
2019-06-01T07:21:16.796Z,99803.77
2019-06-01T07:23:43.613Z,99797.16
2019-06-01T07:26:10.393Z,99794.67
2019-06-01T07:28:37.158Z,99790.48
2019-06-01T07:31:03.764Z,99786.70
2019-06-01T07:33:30.315Z,99788.56
2019-06-01T07:35:58.589Z,99781.47
2019-06-01T07:38:28.916Z,99787.11
2019-06-01T07:40:55.608Z,99777.29
2019-06-01T07:43:22.621Z,99782.84
2019-06-01T07:45:50.193Z,99781.74
2019-06-01T07:48:17.040Z,99787.19
2019-06-01T07:50:48.963Z,99783.31
2019-06-01T07:53:17.876Z,99787.78
2019-06-01T07:55:44.504Z,99786.52
2019-06-01T07:58:11.137Z,99784.84
2019-06-01T08:00:38.510Z,99783.80
2019-06-01T08:03:05.419Z,99779.06
2019-06-01T08:05:34.430Z,99777.16
2019-06-01T08:08:01.139Z,99778.88
2019-06-01T08:10:27.838Z,99781.08
2019-06-01T08:12:54.465Z,99784.22
2019-06-01T08:15:21.751Z,99787.22
2019-06-01T08:17:48.899Z,99724.89
2019-06-01T08:20:17.307Z,99782.38
2019-06-01T08:22:44.358Z,99780.09
2019-06-01T08:25:11.298Z,99778.55
2019-06-01T08:27:37.996Z,99776.96
2019-06-01T08:30:07.467Z,99779.39
2019-06-01T08:32:34.366Z,99776.27
2019-06-01T08:35:08.742Z,99771.32
2019-06-01T08:37:31.374Z,99769.59
2019-06-01T08:39:59.272Z,99773.88
2019-06-01T08:42:27.379Z,99767.92
2019-06-01T08:44:54.369Z,99768.94
2019-06-01T08:47:21.062Z,99775.93
2019-06-01T08:49:47.642Z,99775.58
2019-06-01T08:52:14.352Z,99781.31
2019-06-01T08:54:41.181Z,99777.06
2019-06-01T08:57:07.818Z,99772.38
2019-06-01T08:59:34.671Z,99769.06
2019-06-01T09:02:01.517Z,99774.30
2019-06-01T09:04:28.842Z,99774.35
2019-06-01T09:06:55.577Z,99777.36
2019-06-01T09:09:22.577Z,99773.14
2019-06-01T09:11:49.429Z,99770.52
2019-06-01T09:14:16.039Z,99767.53
2019-06-01T09:16:42.743Z,99764.30
2019-06-01T09:19:11.334Z,99772.02
2019-06-01T09:21:38.125Z,99767.72
2019-06-01T09:24:04.885Z,99773.53
2019-06-01T09:26:32.009Z,99781.17
2019-06-01T09:28:58.729Z,99779.08
2019-06-01T09:31:26.290Z,99774.94
2019-06-01T09:33:52.853Z,99773.84
2019-06-01T09:36:19.538Z,99779.48
2019-06-01T09:38:46.007Z,99776.97
2019-06-01T09:41:12.659Z,99782.58
2019-06-01T09:43:39.278Z,99780.44
2019-06-01T09:46:05.999Z,99780.44
2019-06-01T09:48:33.578Z,99772.98
2019-06-01T09:51:00.435Z,99772.98
2019-06-01T09:53:28.658Z,99773.41
2019-06-01T09:55:55.938Z,99769.31
2019-06-01T09:58:23.309Z,99769.31
2019-06-01T10:00:50.228Z,99772.95
2019-06-01T10:03:18.818Z,99772.95
2019-06-01T10:06:00.767Z,99771.11
2019-06-01T10:08:14.351Z,99761.12
2019-06-01T10:10:42.166Z,99760.23
2019-06-01T10:13:08.993Z,99755.33
2019-06-01T10:15:36.461Z,99758.20
2019-06-01T10:18:03.351Z,99754.64
2019-06-01T10:20:30.665Z,99757.42
2019-06-01T10:22:57.423Z,99757.42
2019-06-01T10:25:24.097Z,99757.95
2019-06-01T10:27:50.656Z,99761.23
2019-06-01T10:30:17.921Z,99755.50
2019-06-01T10:32:44.458Z,99747.34
2019-06-01T10:35:11.307Z,99741.89
2019-06-01T10:37:41.805Z,99737.26
2019-06-01T10:40:09.338Z,99729.34
2019-06-01T10:42:36.567Z,99729.34
2019-06-01T10:45:06.376Z,99727.41
2019-06-01T10:47:34.424Z,99732.57
2019-06-01T10:50:01.297Z,99732.57
2019-06-01T10:52:27.993Z,99723.21
2019-06-01T10:55:05.800Z,99729.00
2019-06-01T10:57:34.482Z,99727.29
2019-06-01T11:00:02.857Z,99730.05
2019-06-01T11:02:29.794Z,99724.67
2019-06-01T11:04:56.704Z,99724.84
2019-06-01T11:07:23.440Z,99719.53
2019-06-01T11:09:50.034Z,99714.06
2019-06-01T11:12:16.975Z,99708.88
2019-06-01T11:14:43.859Z,99707.20
2019-06-01T11:17:10.698Z,99707.31
2019-06-01T11:19:37.673Z,99707.97
2019-06-01T11:22:04.535Z,99705.86
2019-06-01T11:24:31.419Z,99710.62
2019-06-01T11:26:58.420Z,99702.27
2019-06-01T11:29:25.170Z,99697.45
2019-06-01T11:31:51.967Z,99698.38
2019-06-01T11:34:18.699Z,99693.95
2019-06-01T11:37:01.878Z,99692.39
2019-06-01T11:39:14.048Z,99690.55
2019-06-01T11:41:40.821Z,99692.39
2019-06-01T11:44:07.640Z,99687.46
2019-06-01T11:46:34.740Z,99692.97
2019-06-01T11:49:01.858Z,99691.90
2019-06-01T11:51:28.568Z,99676.48
2019-06-01T11:53:55.284Z,99692.25
2019-06-01T11:56:21.883Z,99682.52
2019-06-01T11:58:48.463Z,99687.34
2019-06-01T12:01:15.262Z,99686.92
2019-06-01T12:03:41.922Z,99684.42
2019-06-01T12:06:08.618Z,99679.20
2019-06-01T12:08:35.968Z,99676.69
2019-06-01T12:11:03.294Z,99676.69
2019-06-01T12:13:29.778Z,99670.39
2019-06-01T12:15:56.585Z,99666.94
2019-06-01T12:18:23.265Z,99668.43
2019-06-01T12:20:50.002Z,99664.88
2019-06-01T12:23:16.638Z,99658.45
2019-06-01T12:25:44.374Z,99658.45
2019-06-01T12:28:11.147Z,99659.70
2019-06-01T12:30:39.519Z,99650.08
2019-06-01T12:33:06.452Z,99654.72
2019-06-01T12:35:33.082Z,99650.08
2019-06-01T12:38:06.613Z,99647.50
2019-06-01T12:40:29.984Z,99642.75
2019-06-01T12:42:56.654Z,99643.37
2019-06-01T12:45:25.771Z,99631.80
2019-06-01T12:47:57.734Z,99631.80
2019-06-01T12:50:21.371Z,99630.48
2019-06-01T12:52:48.624Z,99625.25
2019-06-01T12:55:16.035Z,99621.05
2019-06-01T12:57:42.959Z,99617.80
2019-06-01T13:00:10.452Z,99612.84
2019-06-01T13:02:37.035Z,99618.35
2019-06-01T13:05:05.634Z,99604.01
2019-06-01T13:07:32.195Z,99602.62
2019-06-01T13:09:59.044Z,99604.36
2019-06-01T13:12:25.853Z,99599.58
2019-06-01T13:14:54.412Z,99591.91
2019-06-01T13:17:21.128Z,99600.96
2019-06-01T13:19:47.770Z,99595.72
2019-06-01T13:22:14.319Z,99600.88
2019-06-01T13:24:41.575Z,99596.11
2019-06-01T13:27:08.336Z,99587.42
2019-06-01T13:29:35.210Z,99580.10
2019-06-01T13:32:01.953Z,99581.86
2019-06-01T13:34:28.587Z,99586.12
2019-06-01T13:36:56.415Z,99581.86
2019-06-01T13:39:23.017Z,99579.48
2019-06-01T13:41:49.708Z,99571.12
2019-06-01T13:44:16.377Z,99566.58
2019-06-01T13:46:43.527Z,99574.69
2019-06-01T13:49:10.393Z,99573.71
2019-06-01T13:51:36.967Z,99580.94
2019-06-01T13:54:04.009Z,99586.40
2019-06-01T13:56:30.637Z,99588.29
2019-06-01T13:58:57.295Z,99588.31
2019-06-01T14:01:23.893Z,99587.50
2019-06-01T14:03:52.288Z,99586.53
2019-06-01T14:06:19.066Z,99592.80
2019-06-01T14:08:49.105Z,99590.77
2019-06-01T14:11:15.844Z,99597.28
2019-06-01T14:13:42.634Z,99591.73
2019-06-01T14:16:09.474Z,99583.14
2019-06-01T14:18:36.163Z,99580.42
2019-06-01T14:21:02.998Z,99577.52
2019-06-01T14:23:29.542Z,99582.27
2019-06-01T14:25:56.407Z,99578.34
2019-06-01T14:28:23.302Z,99588.95
2019-06-01T14:30:50.260Z,99578.85
2019-06-01T14:33:17.095Z,99573.65
2019-06-01T14:35:43.771Z,99576.58
2019-06-01T14:38:10.488Z,99566.76
2019-06-01T14:40:41.197Z,99569.68
2019-06-01T14:43:06.191Z,99559.80
2019-06-01T14:45:33.145Z,99562.09
2019-06-01T14:47:59.852Z,99554.17
2019-06-01T14:50:26.741Z,99560.72
2019-06-01T14:52:53.727Z,99547.94
2019-06-01T14:55:20.544Z,99547.39
2019-06-01T14:57:48.491Z,99539.61
2019-06-01T15:00:16.207Z,99546.47
2019-06-01T15:02:42.985Z,99541.91
2019-06-01T15:05:10.238Z,99544.50
2019-06-01T15:07:37.339Z,99535.95
2019-06-01T15:10:07.265Z,99535.14
2019-06-01T15:12:33.945Z,99535.14
2019-06-01T15:15:03.392Z,99531.05
2019-06-01T15:17:30.308Z,99531.16
2019-06-01T15:19:58.205Z,99529.41
2019-06-01T15:22:25.036Z,99530.31
2019-06-01T15:24:52.321Z,99529.70
2019-06-01T15:27:18.958Z,99527.09
2019-06-01T15:29:45.581Z,99528.99
2019-06-01T15:32:12.301Z,99534.09
2019-06-01T15:34:38.965Z,99533.06
2019-06-01T15:37:05.631Z,99537.20
2019-06-01T15:39:32.091Z,99528.78
2019-06-01T15:41:59.136Z,99525.02
2019-06-01T15:44:25.736Z,99527.50
2019-06-01T15:46:53.710Z,99524.09
2019-06-01T15:49:20.504Z,99514.06
2019-06-01T15:51:47.092Z,99512.09
2019-06-01T15:54:13.808Z,99512.75
2019-06-01T15:56:40.601Z,99510.26
2019-06-01T15:59:07.456Z,99513.16
2019-06-01T16:01:34.436Z,99515.45
2019-06-01T16:04:01.427Z,99502.72
2019-06-01T16:06:28.295Z,99504.18
2019-06-01T16:08:57.275Z,99513.77
2019-06-01T16:11:24.202Z,99527.20
2019-06-01T16:13:50.984Z,99529.91
2019-06-01T16:16:17.733Z,99528.77
2019-06-01T16:18:44.742Z,99525.13
2019-06-01T16:21:11.889Z,99519.30
2019-06-01T16:23:49.270Z,99515.11
2019-06-01T16:26:15.687Z,99510.92
2019-06-01T16:28:36.009Z,99509.30
2019-06-01T16:31:03.275Z,99509.87
2019-06-01T16:33:29.916Z,99513.47
2019-06-01T16:35:56.949Z,99516.00
2019-06-01T16:38:23.854Z,99516.84
2019-06-01T16:40:50.337Z,99511.48
2019-06-01T16:43:17.193Z,99508.19
2019-06-01T16:45:44.062Z,99506.77
2019-06-01T16:48:10.824Z,99505.64
2019-06-01T16:50:37.571Z,99507.78
2019-06-01T16:53:06.170Z,99508.05
2019-06-01T16:55:35.052Z,99510.98
2019-06-01T16:58:03.748Z,99510.33
2019-06-01T17:00:30.670Z,99508.36
2019-06-01T17:02:58.464Z,99507.02
2019-06-01T17:05:26.004Z,99508.83
2019-06-01T17:07:52.786Z,99498.34
2019-06-01T17:10:26.276Z,99493.30
2019-06-01T17:12:49.812Z,99506.06
2019-06-01T17:15:17.092Z,99500.73
2019-06-01T17:17:44.096Z,99505.67
2019-06-01T17:21:03.524Z,99511.13
2019-06-01T17:23:33.986Z,99517.00
2019-06-01T17:26:07.038Z,99515.03
2019-06-01T17:28:55.734Z,99515.07
2019-06-01T17:31:26.168Z,99510.01
2019-06-01T17:33:52.806Z,99508.66
2019-06-01T17:36:19.598Z,99511.56
2019-06-01T17:38:46.467Z,99499.22
2019-06-01T17:41:13.208Z,99503.94
2019-06-01T17:43:39.867Z,99517.59
2019-06-01T17:46:07.274Z,99503.97
2019-06-01T17:48:34.148Z,99505.96
2019-06-01T17:51:02.461Z,99515.23
2019-06-01T17:53:29.594Z,99511.19
2019-06-01T17:55:56.413Z,99508.33
2019-06-01T17:58:23.387Z,99500.56
2019-06-01T18:00:50.284Z,99504.69
2019-06-01T18:03:16.962Z,99506.41
2019-06-01T18:05:43.909Z,99510.41
2019-06-01T18:08:12.335Z,99511.13
2019-06-01T18:10:53.177Z,99503.41
2019-06-01T18:13:08.915Z,99496.28
2019-06-01T18:15:36.112Z,99502.83
2019-06-01T18:18:04.526Z,99507.91
2019-06-01T18:20:31.391Z,99504.95
2019-06-01T18:22:58.045Z,99506.36
2019-06-01T18:25:26.605Z,99508.61
2019-06-01T18:27:53.514Z,99510.66
2019-06-01T18:30:21.760Z,99504.97
2019-06-01T18:32:48.860Z,99507.97
2019-06-01T18:35:19.464Z,99514.63
2019-06-01T18:37:44.351Z,99512.59
2019-06-01T18:40:13.840Z,99512.09
2019-06-01T18:42:42.775Z,99511.24
2019-06-01T18:45:11.717Z,99512.95
2019-06-01T18:47:39.302Z,99516.70
2019-06-01T18:50:08.022Z,99523.09
2019-06-01T18:52:35.520Z,99528.48
2019-06-01T18:55:04.346Z,99521.75
2019-06-01T18:57:38.633Z,99526.48
2019-06-01T19:00:08.909Z,99523.27
2019-06-01T19:02:35.860Z,99530.03
2019-06-01T19:05:05.162Z,99526.73
2019-06-01T19:07:31.825Z,99532.35
2019-06-01T19:09:58.631Z,99538.58
2019-06-01T19:12:25.197Z,99537.91
2019-06-01T19:14:51.823Z,99534.20
2019-06-01T19:17:18.553Z,99532.31
2019-06-01T19:19:45.016Z,99537.61
2019-06-01T19:22:12.507Z,99537.80
2019-06-01T19:24:39.330Z,99544.34
2019-06-01T19:27:06.671Z,99551.07
2019-06-01T19:29:33.705Z,99548.38
2019-06-01T19:32:00.761Z,99541.69
2019-06-01T19:34:27.747Z,99543.38
2019-06-01T19:36:57.781Z,99547.08
2019-06-01T19:39:25.663Z,99538.00
2019-06-01T19:41:52.325Z,99540.73
2019-06-01T19:44:18.891Z,99536.98
2019-06-01T19:46:45.487Z,99540.53
2019-06-01T19:49:13.275Z,99532.50
2019-06-01T19:51:40.734Z,99532.70
2019-06-01T19:54:08.648Z,99541.20
2019-06-01T19:56:35.419Z,99538.73
2019-06-01T19:59:02.237Z,99542.89
2019-06-01T20:01:29.057Z,99544.93
2019-06-01T20:03:55.594Z,99552.00
2019-06-01T20:06:23.316Z,99550.52
2019-06-01T20:08:50.133Z,99552.89
2019-06-01T20:11:17.180Z,99556.73
2019-06-01T20:13:44.217Z,99557.08
2019-06-01T20:16:12.301Z,99562.45
2019-06-01T20:18:39.164Z,99564.84
2019-06-01T20:21:05.954Z,99563.44
2019-06-01T20:23:32.549Z,99560.44
2019-06-01T20:26:00.018Z,99563.66
2019-06-01T20:28:26.701Z,99566.77
2019-06-01T20:30:53.185Z,99567.10
2019-06-01T20:33:20.477Z,99570.88
2019-06-01T20:35:48.197Z,99574.28
2019-06-01T20:38:20.554Z,99575.34
2019-06-01T20:40:47.500Z,99575.50
2019-06-01T20:43:15.188Z,99578.72
2019-06-01T20:45:42.886Z,99569.97
2019-06-01T20:48:09.741Z,99572.28
2019-06-01T20:50:36.680Z,99572.06
2019-06-01T20:53:03.431Z,99581.00
2019-06-01T20:55:30.096Z,99579.47
2019-06-01T20:57:56.680Z,99586.04
2019-06-01T21:00:23.833Z,99580.29
2019-06-01T21:02:52.485Z,99582.95
2019-06-01T21:05:19.980Z,99589.95
2019-06-01T21:07:47.034Z,99587.33
2019-06-01T21:10:18.149Z,99588.33
2019-06-01T21:12:46.050Z,99586.30
2019-06-01T21:15:13.341Z,99587.27
2019-06-01T21:17:40.182Z,99585.27
2019-06-01T21:20:07.070Z,99584.30
2019-06-01T21:22:33.803Z,99590.48
2019-06-01T21:25:00.792Z,99583.23
2019-06-01T21:27:27.553Z,99584.92
2019-06-01T21:29:54.833Z,99591.38
2019-06-01T21:32:21.428Z,99594.81
2019-06-01T21:34:48.133Z,99597.25
2019-06-01T21:37:15.359Z,99594.63
2019-06-01T21:39:42.684Z,99588.90
2019-06-01T21:42:09.534Z,99588.03
2019-06-01T21:44:36.175Z,99598.25
2019-06-01T21:47:02.868Z,99594.54
2019-06-01T21:49:30.022Z,99598.98
2019-06-01T21:51:56.754Z,99605.88
2019-06-01T21:54:24.603Z,99600.98
2019-06-01T21:56:51.592Z,99594.61
2019-06-01T21:59:18.516Z,99599.66
2019-06-01T22:01:45.650Z,99601.71
2019-06-01T22:04:12.363Z,99598.00
2019-06-01T22:06:38.921Z,99595.02
2019-06-01T22:09:05.740Z,99596.34
2019-06-01T22:11:32.572Z,99596.68
2019-06-01T22:13:59.170Z,99599.23
2019-06-01T22:16:25.859Z,99608.12
2019-06-01T22:18:52.486Z,99605.33
2019-06-01T22:21:19.695Z,99600.82
2019-06-01T22:23:46.352Z,99605.33
2019-06-01T22:39:47.729Z,99599.18
2019-06-01T22:42:14.502Z,99599.84
2019-06-01T22:44:40.948Z,99599.52
2019-06-01T22:47:07.546Z,99600.21
2019-06-01T22:49:34.144Z,99595.55
2019-06-01T22:55:34.766Z,99598.22
2019-06-01T23:09:56.542Z,99589.23
2019-06-01T23:12:23.392Z,99583.88
2019-06-01T23:14:50.167Z,99588.53
2019-06-01T23:17:16.935Z,99589.23
2019-06-01T23:19:44.012Z,99580.84
2019-06-01T23:22:10.504Z,99582.53
2019-06-01T23:24:37.030Z,99580.35
2019-06-01T23:27:03.842Z,99578.84
2019-06-01T23:29:32.496Z,99582.69
2019-06-01T23:31:59.235Z,99579.52
2019-06-01T23:34:26.640Z,99578.67
2019-06-01T23:36:53.343Z,99576.34
2019-06-01T23:39:19.945Z,99574.16
2019-06-01T23:41:46.706Z,99579.34
2019-06-01T23:44:14.870Z,99579.88
2019-06-01T23:46:41.510Z,99578.34
2019-06-01T23:49:08.156Z,99574.67
2019-06-01T23:51:34.841Z,99578.02
2019-06-01T23:54:01.407Z,99572.80
2019-06-01T23:56:28.046Z,99572.98
2019-06-01T23:58:54.584Z,99576.16
